sensor_id;sensor_type;location;lat;lon;timestamp;pressure;altitude;pressure_sealevel;temperature;humidity
42519;BME280;28147;47.520;18.920;2023-11-22T00:01:29;98148.28;;;9.31;62.73
42519;BME280;28147;47.520;18.920;2023-11-22T00:03:54;98158.56;;;9.27;63.70
42519;BME280;28147;47.520;18.920;2023-11-22T00:06:20;98145.97;;;9.46;62.96
42519;BME280;28147;47.520;18.920;2023-11-22T00:08:46;98139.25;;;9.67;62.35
42519;BME280;28147;47.520;18.920;2023-11-22T00:15:09;98162.84;;;9.52;62.93
42519;BME280;28147;47.520;18.920;2023-11-22T00:17:37;98159.03;;;9.47;63.05
42519;BME280;28147;47.520;18.920;2023-11-22T00:21:39;98167.09;;;9.53;63.06
42519;BME280;28147;47.520;18.920;2023-11-22T00:26:39;98163.63;;;9.64;62.62
42519;BME280;28147;47.520;18.920;2023-11-22T00:29:04;98171.59;;;9.75;62.01
42519;BME280;28147;47.520;18.920;2023-11-22T00:31:30;98166.38;;;9.69;62.17
42519;BME280;28147;47.520;18.920;2023-11-22T00:33:56;98165.34;;;9.82;61.28
42519;BME280;28147;47.520;18.920;2023-11-22T00:37:15;98169.00;;;9.81;61.78
42519;BME280;28147;47.520;18.920;2023-11-22T00:39:41;98161.66;;;9.59;62.17
42519;BME280;28147;47.520;18.920;2023-11-22T00:42:07;98161.44;;;9.49;62.09
42519;BME280;28147;47.520;18.920;2023-11-22T00:44:33;98168.94;;;9.64;62.09
42519;BME280;28147;47.520;18.920;2023-11-22T00:46:58;98170.09;;;9.56;62.08
42519;BME280;28147;47.520;18.920;2023-11-22T00:49:24;98163.38;;;9.54;62.05
42519;BME280;28147;47.520;18.920;2023-11-22T00:51:50;98157.63;;;9.45;62.51
42519;BME280;28147;47.520;18.920;2023-11-22T00:54:16;98161.31;;;9.56;62.18
42519;BME280;28147;47.520;18.920;2023-11-22T00:56:42;98162.25;;;9.49;62.32
42519;BME280;28147;47.520;18.920;2023-11-22T00:59:07;98163.84;;;9.39;62.63
42519;BME280;28147;47.520;18.920;2023-11-22T01:01:34;98163.41;;;9.30;63.13
42519;BME280;28147;47.520;18.920;2023-11-22T01:03:59;98169.06;;;9.57;62.48
42519;BME280;28147;47.520;18.920;2023-11-22T01:06:25;98162.94;;;9.57;62.72
42519;BME280;28147;47.520;18.920;2023-11-22T01:08:50;98166.84;;;9.54;62.45
42519;BME280;28147;47.520;18.920;2023-11-22T01:12:10;98167.34;;;9.51;62.37
42519;BME280;28147;47.520;18.920;2023-11-22T01:14:37;98172.31;;;9.59;62.47
42519;BME280;28147;47.520;18.920;2023-11-22T01:17:28;98181.19;;;9.65;62.38
42519;BME280;28147;47.520;18.920;2023-11-22T01:19:53;98170.00;;;9.63;62.32
42519;BME280;28147;47.520;18.920;2023-11-22T01:22:18;98177.81;;;9.69;62.06
42519;BME280;28147;47.520;18.920;2023-11-22T01:24:44;98178.31;;;9.66;61.89
42519;BME280;28147;47.520;18.920;2023-11-22T01:27:10;98185.22;;;9.67;62.20
42519;BME280;28147;47.520;18.920;2023-11-22T01:29:35;98185.03;;;10.09;60.63
42519;BME280;28147;47.520;18.920;2023-11-22T01:32:01;98189.09;;;10.12;60.77
42519;BME280;28147;47.520;18.920;2023-11-22T01:34:26;98177.81;;;10.21;60.52
42519;BME280;28147;47.520;18.920;2023-11-22T01:36:52;98172.78;;;10.08;60.14
42519;BME280;28147;47.520;18.920;2023-11-22T01:42:17;98177.72;;;10.57;58.72
42519;BME280;28147;47.520;18.920;2023-11-22T01:46:29;98174.56;;;10.60;58.58
42519;BME280;28147;47.520;18.920;2023-11-22T01:48:54;98176.44;;;10.59;58.89
42519;BME280;28147;47.520;18.920;2023-11-22T01:53:44;98186.88;;;10.61;58.70
42519;BME280;28147;47.520;18.920;2023-11-22T01:56:11;98182.75;;;10.41;59.01
42519;BME280;28147;47.520;18.920;2023-11-22T01:58:36;98190.91;;;10.23;59.53
42519;BME280;28147;47.520;18.920;2023-11-22T02:01:04;98195.97;;;10.36;59.25
42519;BME280;28147;47.520;18.920;2023-11-22T02:03:29;98194.72;;;10.56;58.72
42519;BME280;28147;47.520;18.920;2023-11-22T02:05:55;98193.38;;;10.53;58.72
42519;BME280;28147;47.520;18.920;2023-11-22T02:08:21;98189.66;;;10.54;58.68
42519;BME280;28147;47.520;18.920;2023-11-22T02:10:57;98190.13;;;10.51;58.46
42519;BME280;28147;47.520;18.920;2023-11-22T02:13:22;98190.81;;;10.58;58.86
42519;BME280;28147;47.520;18.920;2023-11-22T02:15:48;98185.22;;;10.60;58.43
42519;BME280;28147;47.520;18.920;2023-11-22T02:18:13;98201.13;;;10.55;58.25
42519;BME280;28147;47.520;18.920;2023-11-22T02:20:39;98197.53;;;10.49;58.40
42519;BME280;28147;47.520;18.920;2023-11-22T02:23:08;98207.38;;;10.48;58.62
42519;BME280;28147;47.520;18.920;2023-11-22T02:26:45;98203.09;;;10.47;58.19
42519;BME280;28147;47.520;18.920;2023-11-22T02:29:19;98197.84;;;10.24;58.91
42519;BME280;28147;47.520;18.920;2023-11-22T02:31:45;98209.59;;;10.40;58.29
42519;BME280;28147;47.520;18.920;2023-11-22T02:34:10;98200.28;;;10.14;58.63
42519;BME280;28147;47.520;18.920;2023-11-22T02:36:36;98206.22;;;10.44;58.15
42519;BME280;28147;47.520;18.920;2023-11-22T02:39:02;98205.47;;;10.32;58.04
42519;BME280;28147;47.520;18.920;2023-11-22T02:41:27;98205.94;;;10.17;58.36
42519;BME280;28147;47.520;18.920;2023-11-22T02:43:55;98211.28;;;10.06;58.65
42519;BME280;28147;47.520;18.920;2023-11-22T02:46:20;98219.72;;;10.03;58.67
42519;BME280;28147;47.520;18.920;2023-11-22T02:48:46;98227.47;;;10.28;58.47
42519;BME280;28147;47.520;18.920;2023-11-22T02:51:11;98223.50;;;10.18;58.45
42519;BME280;28147;47.520;18.920;2023-11-22T02:53:39;98232.19;;;10.14;58.36
42519;BME280;28147;47.520;18.920;2023-11-22T02:56:11;98237.06;;;10.17;58.70
42519;BME280;28147;47.520;18.920;2023-11-22T02:58:37;98236.00;;;10.18;58.76
42519;BME280;28147;47.520;18.920;2023-11-22T03:03:07;98225.19;;;10.08;58.96
42519;BME280;28147;47.520;18.920;2023-11-22T03:05:35;98247.16;;;10.27;58.79
42519;BME280;28147;47.520;18.920;2023-11-22T03:08:45;98254.03;;;10.39;58.39
42519;BME280;28147;47.520;18.920;2023-11-22T03:11:10;98256.28;;;10.31;58.33
42519;BME280;28147;47.520;18.920;2023-11-22T03:18:29;98263.09;;;10.03;58.65
42519;BME280;28147;47.520;18.920;2023-11-22T03:20:54;98263.06;;;10.15;58.52
42519;BME280;28147;47.520;18.920;2023-11-22T03:23:20;98272.38;;;10.01;58.78
42519;BME280;28147;47.520;18.920;2023-11-22T03:25:46;98268.66;;;10.02;59.10
42519;BME280;28147;47.520;18.920;2023-11-22T03:28:12;98260.91;;;10.00;59.31
42519;BME280;28147;47.520;18.920;2023-11-22T03:32:28;98274.53;;;10.04;59.63
42519;BME280;28147;47.520;18.920;2023-11-22T03:35:54;98270.72;;;10.11;59.49
42519;BME280;28147;47.520;18.920;2023-11-22T03:40:28;98276.38;;;10.15;59.84
42519;BME280;28147;47.520;18.920;2023-11-22T03:43:32;98285.41;;;10.14;60.21
42519;BME280;28147;47.520;18.920;2023-11-22T03:46:24;98284.34;;;10.15;60.27
42519;BME280;28147;47.520;18.920;2023-11-22T03:48:50;98282.88;;;10.31;59.77
42519;BME280;28147;47.520;18.920;2023-11-22T03:51:25;98294.88;;;10.33;59.44
42519;BME280;28147;47.520;18.920;2023-11-22T03:53:51;98292.94;;;10.29;59.67
42519;BME280;28147;47.520;18.920;2023-11-22T03:56:59;98288.66;;;10.16;59.76
42519;BME280;28147;47.520;18.920;2023-11-22T04:01:29;98299.66;;;10.31;59.33
42519;BME280;28147;47.520;18.920;2023-11-22T04:03:54;98305.31;;;10.35;59.34
42519;BME280;28147;47.520;18.920;2023-11-22T04:06:20;98295.84;;;10.27;59.05
42519;BME280;28147;47.520;18.920;2023-11-22T04:08:46;98307.47;;;10.38;58.77
42519;BME280;28147;47.520;18.920;2023-11-22T04:11:12;98307.81;;;10.41;58.89
42519;BME280;28147;47.520;18.920;2023-11-22T04:13:38;98306.22;;;10.40;59.28
42519;BME280;28147;47.520;18.920;2023-11-22T04:16:04;98293.38;;;10.26;58.92
42519;BME280;28147;47.520;18.920;2023-11-22T04:19:42;98309.47;;;10.42;58.75
42519;BME280;28147;47.520;18.920;2023-11-22T04:23:57;98309.00;;;10.45;58.52
42519;BME280;28147;47.520;18.920;2023-11-22T04:26:23;98302.97;;;10.50;58.63
42519;BME280;28147;47.520;18.920;2023-11-22T04:28:50;98317.06;;;10.51;58.85
42519;BME280;28147;47.520;18.920;2023-11-22T04:31:15;98308.84;;;10.52;58.25
42519;BME280;28147;47.520;18.920;2023-11-22T04:33:41;98310.59;;;10.46;58.40
42519;BME280;28147;47.520;18.920;2023-11-22T04:36:06;98317.41;;;10.19;59.21
42519;BME280;28147;47.520;18.920;2023-11-22T04:38:32;98312.00;;;10.26;58.99
42519;BME280;28147;47.520;18.920;2023-11-22T04:40:59;98316.16;;;10.33;58.91
42519;BME280;28147;47.520;18.920;2023-11-22T04:43:24;98320.16;;;10.59;58.08
42519;BME280;28147;47.520;18.920;2023-11-22T04:45:49;98327.94;;;10.49;57.89
42519;BME280;28147;47.520;18.920;2023-11-22T04:48:15;98330.47;;;10.56;57.63
42519;BME280;28147;47.520;18.920;2023-11-22T04:50:41;98341.25;;;10.37;58.23
42519;BME280;28147;47.520;18.920;2023-11-22T04:53:09;98343.72;;;10.27;58.23
42519;BME280;28147;47.520;18.920;2023-11-22T04:55:35;98340.69;;;10.47;58.03
42519;BME280;28147;47.520;18.920;2023-11-22T04:58:00;98336.75;;;10.50;57.65
42519;BME280;28147;47.520;18.920;2023-11-22T05:00:26;98343.25;;;10.42;57.78
42519;BME280;28147;47.520;18.920;2023-11-22T05:02:51;98349.47;;;10.47;57.69
42519;BME280;28147;47.520;18.920;2023-11-22T05:05:17;98340.56;;;10.54;57.41
42519;BME280;28147;47.520;18.920;2023-11-22T05:07:42;98343.91;;;10.37;57.91
42519;BME280;28147;47.520;18.920;2023-11-22T05:10:09;98349.25;;;10.37;57.84
42519;BME280;28147;47.520;18.920;2023-11-22T05:12:44;98352.50;;;10.28;57.70
42519;BME280;28147;47.520;18.920;2023-11-22T05:15:19;98367.88;;;10.26;58.31
42519;BME280;28147;47.520;18.920;2023-11-22T05:17:45;98358.03;;;10.26;57.70
42519;BME280;28147;47.520;18.920;2023-11-22T05:20:10;98364.75;;;10.17;58.09
42519;BME280;28147;47.520;18.920;2023-11-22T05:23:20;98375.03;;;10.13;57.80
42519;BME280;28147;47.520;18.920;2023-11-22T05:25:47;98370.88;;;10.06;57.83
42519;BME280;28147;47.520;18.920;2023-11-22T05:28:12;98365.19;;;9.90;58.21
42519;BME280;28147;47.520;18.920;2023-11-22T05:30:38;98375.03;;;10.13;57.82
42519;BME280;28147;47.520;18.920;2023-11-22T05:35:17;98371.06;;;9.92;58.62
42519;BME280;28147;47.520;18.920;2023-11-22T05:41:53;98389.91;;;9.79;59.06
42519;BME280;28147;47.520;18.920;2023-11-22T05:44:54;98405.88;;;9.91;58.81
42519;BME280;28147;47.520;18.920;2023-11-22T05:47:19;98408.53;;;9.91;58.38
42519;BME280;28147;47.520;18.920;2023-11-22T05:51:15;98409.59;;;9.90;58.34
42519;BME280;28147;47.520;18.920;2023-11-22T05:53:41;98413.44;;;9.64;58.98
42519;BME280;28147;47.520;18.920;2023-11-22T06:00:16;98415.16;;;9.58;59.17
42519;BME280;28147;47.520;18.920;2023-11-22T06:05:19;98423.88;;;9.47;59.35
42519;BME280;28147;47.520;18.920;2023-11-22T06:07:45;98429.28;;;9.59;58.92
42519;BME280;28147;47.520;18.920;2023-11-22T06:10:10;98436.47;;;9.40;59.67
42519;BME280;28147;47.520;18.920;2023-11-22T06:15:03;98439.22;;;9.63;59.14
42519;BME280;28147;47.520;18.920;2023-11-22T06:17:29;98451.06;;;9.49;59.42
42519;BME280;28147;47.520;18.920;2023-11-22T06:19:55;98448.88;;;9.58;59.30
42519;BME280;28147;47.520;18.920;2023-11-22T06:22:21;98450.28;;;9.60;59.05
42519;BME280;28147;47.520;18.920;2023-11-22T06:24:47;98447.88;;;9.59;59.21
42519;BME280;28147;47.520;18.920;2023-11-22T06:27:13;98455.78;;;9.77;58.64
42519;BME280;28147;47.520;18.920;2023-11-22T06:29:40;98458.81;;;9.92;58.53
42519;BME280;28147;47.520;18.920;2023-11-22T06:32:08;98475.50;;;10.11;57.98
42519;BME280;28147;47.520;18.920;2023-11-22T06:34:35;98478.16;;;10.11;57.67
42519;BME280;28147;47.520;18.920;2023-11-22T06:37:01;98482.34;;;10.19;58.05
42519;BME280;28147;47.520;18.920;2023-11-22T06:39:27;98484.38;;;10.35;57.27
42519;BME280;28147;47.520;18.920;2023-11-22T06:41:52;98488.47;;;10.50;57.04
42519;BME280;28147;47.520;18.920;2023-11-22T06:44:18;98489.63;;;10.54;56.79
42519;BME280;28147;47.520;18.920;2023-11-22T06:46:43;98493.19;;;10.71;56.42
42519;BME280;28147;47.520;18.920;2023-11-22T06:49:09;98496.53;;;10.43;57.24
42519;BME280;28147;47.520;18.920;2023-11-22T06:51:34;98495.41;;;10.62;57.05
42519;BME280;28147;47.520;18.920;2023-11-22T06:54:00;98494.69;;;10.43;57.21
42519;BME280;28147;47.520;18.920;2023-11-22T06:56:25;98499.56;;;10.58;57.13
42519;BME280;28147;47.520;18.920;2023-11-22T06:58:50;98509.88;;;10.78;57.13
42519;BME280;28147;47.520;18.920;2023-11-22T07:01:16;98513.47;;;10.84;56.95
42519;BME280;28147;47.520;18.920;2023-11-22T07:03:42;98520.84;;;11.05;56.25
42519;BME280;28147;47.520;18.920;2023-11-22T07:06:07;98524.31;;;11.06;56.30
42519;BME280;28147;47.520;18.920;2023-11-22T07:08:33;98522.59;;;11.00;56.70
42519;BME280;28147;47.520;18.920;2023-11-22T07:10:59;98523.03;;;11.20;56.46
42519;BME280;28147;47.520;18.920;2023-11-22T07:13:25;98531.16;;;11.25;56.08
42519;BME280;28147;47.520;18.920;2023-11-22T07:15:52;98535.50;;;11.43;55.72
42519;BME280;28147;47.520;18.920;2023-11-22T07:18:19;98556.06;;;11.71;54.89
42519;BME280;28147;47.520;18.920;2023-11-22T07:20:44;98550.91;;;11.81;54.59
42519;BME280;28147;47.520;18.920;2023-11-22T07:23:10;98558.97;;;11.69;54.11
42519;BME280;28147;47.520;18.920;2023-11-22T07:25:39;98563.63;;;12.03;53.66
42519;BME280;28147;47.520;18.920;2023-11-22T07:28:05;98555.91;;;12.18;53.44
42519;BME280;28147;47.520;18.920;2023-11-22T07:30:30;98563.56;;;12.43;53.64
42519;BME280;28147;47.520;18.920;2023-11-22T07:32:58;98551.00;;;12.60;52.90
42519;BME280;28147;47.520;18.920;2023-11-22T07:35:26;98550.50;;;12.80;52.10
42519;BME280;28147;47.520;18.920;2023-11-22T07:37:53;98547.19;;;13.07;52.26
42519;BME280;28147;47.520;18.920;2023-11-22T07:40:19;98546.34;;;13.06;51.77
42519;BME280;28147;47.520;18.920;2023-11-22T07:42:47;98548.56;;;13.26;50.58
42519;BME280;28147;47.520;18.920;2023-11-22T07:45:12;98547.31;;;13.17;50.25
42519;BME280;28147;47.520;18.920;2023-11-22T07:47:38;98548.38;;;13.55;50.14
42519;BME280;28147;47.520;18.920;2023-11-22T07:50:09;98569.91;;;13.87;49.81
42519;BME280;28147;47.520;18.920;2023-11-22T07:52:36;98569.25;;;14.29;48.99
42519;BME280;28147;47.520;18.920;2023-11-22T07:55:04;98577.66;;;14.10;47.74
42519;BME280;28147;47.520;18.920;2023-11-22T07:57:35;98581.47;;;14.47;48.45
42519;BME280;28147;47.520;18.920;2023-11-22T08:00:01;98582.22;;;14.69;47.11
42519;BME280;28147;47.520;18.920;2023-11-22T08:02:30;98576.88;;;15.06;46.24
42519;BME280;28147;47.520;18.920;2023-11-22T08:04:56;98572.97;;;15.24;46.73
42519;BME280;28147;47.520;18.920;2023-11-22T08:07:21;98571.16;;;15.35;45.71
42519;BME280;28147;47.520;18.920;2023-11-22T08:09:48;98580.59;;;15.48;45.14
42519;BME280;28147;47.520;18.920;2023-11-22T08:12:13;98588.38;;;15.44;45.29
42519;BME280;28147;47.520;18.920;2023-11-22T08:14:39;98591.94;;;15.60;44.29
42519;BME280;28147;47.520;18.920;2023-11-22T08:17:05;98592.31;;;14.89;44.98
42519;BME280;28147;47.520;18.920;2023-11-22T08:19:31;98587.84;;;14.68;46.99
42519;BME280;28147;47.520;18.920;2023-11-22T08:21:57;98594.34;;;15.09;45.54
42519;BME280;28147;47.520;18.920;2023-11-22T08:24:22;98592.13;;;15.96;44.35
42519;BME280;28147;47.520;18.920;2023-11-22T08:26:47;98607.47;;;16.21;44.17
42519;BME280;28147;47.520;18.920;2023-11-22T08:29:13;98617.75;;;16.29;44.26
42519;BME280;28147;47.520;18.920;2023-11-22T08:31:40;98618.88;;;16.64;42.79
42519;BME280;28147;47.520;18.920;2023-11-22T08:34:05;98608.38;;;16.52;42.29
42519;BME280;28147;47.520;18.920;2023-11-22T08:36:35;98616.94;;;16.44;42.75
42519;BME280;28147;47.520;18.920;2023-11-22T08:50:41;98615.94;;;16.81;41.79
42519;BME280;28147;47.520;18.920;2023-11-22T08:53:06;98620.97;;;16.51;41.96
42519;BME280;28147;47.520;18.920;2023-11-22T08:55:32;98625.19;;;16.12;41.28
42519;BME280;28147;47.520;18.920;2023-11-22T08:57:59;98630.91;;;16.30;42.14
42519;BME280;28147;47.520;18.920;2023-11-22T09:00:24;98624.16;;;16.18;41.85
42519;BME280;28147;47.520;18.920;2023-11-22T09:02:53;98634.38;;;16.36;42.17
42519;BME280;28147;47.520;18.920;2023-11-22T09:05:20;98629.66;;;16.89;41.55
42519;BME280;28147;47.520;18.920;2023-11-22T09:07:47;98619.97;;;17.24;40.36
42519;BME280;28147;47.520;18.920;2023-11-22T09:10:13;98628.53;;;17.31;40.34
42519;BME280;28147;47.520;18.920;2023-11-22T09:12:40;98622.34;;;16.69;40.22
42519;BME280;28147;47.520;18.920;2023-11-22T09:15:10;98616.56;;;15.47;41.99
42519;BME280;28147;47.520;18.920;2023-11-22T09:17:39;98626.63;;;14.11;45.02
42519;BME280;28147;47.520;18.920;2023-11-22T09:20:15;98633.09;;;14.15;44.87
42519;BME280;28147;47.520;18.920;2023-11-22T09:22:50;98632.06;;;14.43;44.71
42519;BME280;28147;47.520;18.920;2023-11-22T09:25:26;98641.69;;;14.98;44.82
42519;BME280;28147;47.520;18.920;2023-11-22T09:27:54;98640.09;;;14.43;46.07
42519;BME280;28147;47.520;18.920;2023-11-22T09:30:31;98641.50;;;15.47;44.39
42519;BME280;28147;47.520;18.920;2023-11-22T09:33:01;98625.81;;;15.66;43.43
42519;BME280;28147;47.520;18.920;2023-11-22T09:35:27;98637.25;;;16.04;42.41
42519;BME280;28147;47.520;18.920;2023-11-22T09:38:04;98640.75;;;16.10;42.52
42519;BME280;28147;47.520;18.920;2023-11-22T09:40:30;98642.28;;;15.43;43.12
42519;BME280;28147;47.520;18.920;2023-11-22T09:42:59;98653.56;;;15.87;42.24
42519;BME280;28147;47.520;18.920;2023-11-22T09:45:27;98650.59;;;15.84;42.34
42519;BME280;28147;47.520;18.920;2023-11-22T09:47:53;98654.84;;;16.47;41.84
42519;BME280;28147;47.520;18.920;2023-11-22T09:50:29;98662.09;;;16.37;40.81
42519;BME280;28147;47.520;18.920;2023-11-22T09:53:00;98666.41;;;16.53;40.23
42519;BME280;28147;47.520;18.920;2023-11-22T09:55:28;98663.97;;;15.78;41.15
42519;BME280;28147;47.520;18.920;2023-11-22T09:57:55;98651.38;;;15.42;41.99
42519;BME280;28147;47.520;18.920;2023-11-22T10:00:24;98658.97;;;15.92;42.22
42519;BME280;28147;47.520;18.920;2023-11-22T10:02:53;98649.06;;;16.03;41.96
42519;BME280;28147;47.520;18.920;2023-11-22T10:05:19;98654.63;;;16.64;40.89
42519;BME280;28147;47.520;18.920;2023-11-22T10:07:46;98664.06;;;16.92;40.74
42519;BME280;28147;47.520;18.920;2023-11-22T10:10:14;98669.47;;;17.13;40.32
42519;BME280;28147;47.520;18.920;2023-11-22T10:12:42;98661.66;;;16.96;39.84
42519;BME280;28147;47.520;18.920;2023-11-22T10:15:16;98671.38;;;17.12;39.66
42519;BME280;28147;47.520;18.920;2023-11-22T10:17:55;98672.69;;;17.25;39.92
42519;BME280;28147;47.520;18.920;2023-11-22T10:20:36;98685.59;;;17.38;40.15
42519;BME280;28147;47.520;18.920;2023-11-22T10:23:01;98684.75;;;17.63;39.53
42519;BME280;28147;47.520;18.920;2023-11-22T10:25:28;98674.50;;;17.70;40.22
42519;BME280;28147;47.520;18.920;2023-11-22T10:27:54;98686.94;;;17.41;40.77
42519;BME280;28147;47.520;18.920;2023-11-22T10:30:20;98690.97;;;17.33;41.11
42519;BME280;28147;47.520;18.920;2023-11-22T10:32:45;98690.59;;;16.58;41.73
42519;BME280;28147;47.520;18.920;2023-11-22T10:35:11;98690.22;;;16.19;42.98
42519;BME280;28147;47.520;18.920;2023-11-22T10:37:41;98702.00;;;16.91;42.53
42519;BME280;28147;47.520;18.920;2023-11-22T10:40:07;98710.03;;;16.86;41.94
42519;BME280;28147;47.520;18.920;2023-11-22T10:42:37;98703.06;;;16.74;42.37
42519;BME280;28147;47.520;18.920;2023-11-22T10:45:03;98716.34;;;16.44;42.84
42519;BME280;28147;47.520;18.920;2023-11-22T10:47:36;98729.88;;;16.69;42.13
42519;BME280;28147;47.520;18.920;2023-11-22T10:50:04;98714.00;;;16.63;42.21
42519;BME280;28147;47.520;18.920;2023-11-22T10:52:33;98731.56;;;16.86;42.34
42519;BME280;28147;47.520;18.920;2023-11-22T10:55:04;98729.66;;;16.76;41.99
42519;BME280;28147;47.520;18.920;2023-11-22T10:57:33;98721.59;;;16.76;42.55
42519;BME280;28147;47.520;18.920;2023-11-22T11:00:04;98732.28;;;16.66;42.30
42519;BME280;28147;47.520;18.920;2023-11-22T11:02:40;98733.16;;;16.14;42.37
42519;BME280;28147;47.520;18.920;2023-11-22T11:05:16;98745.81;;;15.71;43.21
42519;BME280;28147;47.520;18.920;2023-11-22T11:07:49;98745.00;;;14.79;44.99
42519;BME280;28147;47.520;18.920;2023-11-22T11:10:20;98762.34;;;13.55;46.62
42519;BME280;28147;47.520;18.920;2023-11-22T11:12:47;98751.16;;;14.14;47.38
42519;BME280;28147;47.520;18.920;2023-11-22T11:15:13;98756.03;;;13.61;47.63
42519;BME280;28147;47.520;18.920;2023-11-22T11:17:38;98751.59;;;13.21;48.13
42519;BME280;28147;47.520;18.920;2023-11-22T11:20:05;98759.22;;;13.12;49.25
42519;BME280;28147;47.520;18.920;2023-11-22T11:22:32;98771.47;;;13.93;46.94
42519;BME280;28147;47.520;18.920;2023-11-22T11:25:04;98775.66;;;13.50;48.11
42519;BME280;28147;47.520;18.920;2023-11-22T11:27:34;98777.53;;;13.49;48.60
42519;BME280;28147;47.520;18.920;2023-11-22T11:30:45;98780.16;;;13.32;47.74
42519;BME280;28147;47.520;18.920;2023-11-22T11:33:12;98777.84;;;14.69;46.39
42519;BME280;28147;47.520;18.920;2023-11-22T11:35:46;98783.75;;;15.20;44.91
42519;BME280;28147;47.520;18.920;2023-11-22T11:38:19;98792.16;;;15.61;44.17
42519;BME280;28147;47.520;18.920;2023-11-22T11:40:48;98795.69;;;16.04;43.99
42519;BME280;28147;47.520;18.920;2023-11-22T11:43:13;98787.91;;;15.65;43.25
42519;BME280;28147;47.520;18.920;2023-11-22T11:45:40;98782.16;;;15.84;43.34
42519;BME280;28147;47.520;18.920;2023-11-22T11:48:12;98794.94;;;15.44;43.50
42519;BME280;28147;47.520;18.920;2023-11-22T11:50:38;98783.09;;;15.67;44.02
42519;BME280;28147;47.520;18.920;2023-11-22T11:53:03;98778.66;;;15.51;44.43
42519;BME280;28147;47.520;18.920;2023-11-22T11:55:30;98781.91;;;15.90;43.33
42519;BME280;28147;47.520;18.920;2023-11-22T11:57:55;98781.59;;;15.22;43.68
42519;BME280;28147;47.520;18.920;2023-11-22T12:00:22;98781.72;;;15.65;44.46
42519;BME280;28147;47.520;18.920;2023-11-22T12:02:50;98786.97;;;14.95;45.49
42519;BME280;28147;47.520;18.920;2023-11-22T12:05:18;98793.09;;;15.18;44.96
42519;BME280;28147;47.520;18.920;2023-11-22T12:07:45;98782.34;;;14.64;46.08
42519;BME280;28147;47.520;18.920;2023-11-22T12:10:10;98788.63;;;14.74;46.37
42519;BME280;28147;47.520;18.920;2023-11-22T12:12:36;98793.66;;;14.49;46.37
42519;BME280;28147;47.520;18.920;2023-11-22T12:15:03;98788.91;;;14.51;46.77
42519;BME280;28147;47.520;18.920;2023-11-22T12:17:29;98786.41;;;14.27;47.02
42519;BME280;28147;47.520;18.920;2023-11-22T12:20:12;98799.25;;;14.08;46.56
42519;BME280;28147;47.520;18.920;2023-11-22T12:22:39;98803.84;;;13.91;46.48
42519;BME280;28147;47.520;18.920;2023-11-22T12:25:06;98812.94;;;13.73;47.08
42519;BME280;28147;47.520;18.920;2023-11-22T12:27:32;98812.78;;;13.80;47.01
42519;BME280;28147;47.520;18.920;2023-11-22T12:29:57;98819.41;;;13.77;47.40
42519;BME280;28147;47.520;18.920;2023-11-22T12:32:26;98823.81;;;13.83;47.32
42519;BME280;28147;47.520;18.920;2023-11-22T12:34:52;98814.16;;;13.49;47.53
42519;BME280;28147;47.520;18.920;2023-11-22T12:37:23;98820.75;;;13.29;48.04
42519;BME280;28147;47.520;18.920;2023-11-22T12:39:49;98833.78;;;13.26;47.99
42519;BME280;28147;47.520;18.920;2023-11-22T12:42:17;98834.47;;;13.21;48.71
42519;BME280;28147;47.520;18.920;2023-11-22T12:44:52;98833.69;;;12.92;48.97
42519;BME280;28147;47.520;18.920;2023-11-22T12:47:33;98835.31;;;12.93;49.15
42519;BME280;28147;47.520;18.920;2023-11-22T12:50:01;98850.69;;;12.74;49.52
42519;BME280;28147;47.520;18.920;2023-11-22T12:52:27;98851.38;;;12.81;49.90
42519;BME280;28147;47.520;18.920;2023-11-22T12:54:53;98858.69;;;12.74;50.03
42519;BME280;28147;47.520;18.920;2023-11-22T12:57:18;98846.41;;;12.73;50.17
42519;BME280;28147;47.520;18.920;2023-11-22T12:59:44;98858.63;;;12.34;51.15
42519;BME280;28147;47.520;18.920;2023-11-22T13:02:09;98855.06;;;12.28;51.02
42519;BME280;28147;47.520;18.920;2023-11-22T13:04:35;98870.25;;;12.39;51.69
42519;BME280;28147;47.520;18.920;2023-11-22T13:07:00;98856.31;;;12.37;51.49
42519;BME280;28147;47.520;18.920;2023-11-22T13:09:26;98856.09;;;12.15;51.76
42519;BME280;28147;47.520;18.920;2023-11-22T13:11:52;98862.38;;;12.09;52.21
42519;BME280;28147;47.520;18.920;2023-11-22T13:14:17;98858.75;;;11.92;52.85
42519;BME280;28147;47.520;18.920;2023-11-22T13:16:43;98851.19;;;11.89;52.73
42519;BME280;28147;47.520;18.920;2023-11-22T13:19:10;98854.59;;;11.54;53.77
42519;BME280;28147;47.520;18.920;2023-11-22T13:21:36;98846.59;;;11.54;53.92
42519;BME280;28147;47.520;18.920;2023-11-22T13:24:01;98838.41;;;11.67;53.75
42519;BME280;28147;47.520;18.920;2023-11-22T13:26:28;98852.31;;;11.69;53.17
42519;BME280;28147;47.520;18.920;2023-11-22T13:28:54;98857.09;;;11.79;53.29
42519;BME280;28147;47.520;18.920;2023-11-22T13:31:20;98845.50;;;11.85;53.19
42519;BME280;28147;47.520;18.920;2023-11-22T13:33:47;98852.16;;;11.95;53.00
42519;BME280;28147;47.520;18.920;2023-11-22T13:36:12;98846.97;;;11.69;53.54
42519;BME280;28147;47.520;18.920;2023-11-22T13:38:39;98849.31;;;11.78;53.34
42519;BME280;28147;47.520;18.920;2023-11-22T13:41:05;98854.97;;;11.69;53.40
42519;BME280;28147;47.520;18.920;2023-11-22T13:43:30;98879.91;;;11.63;53.44
42519;BME280;28147;47.520;18.920;2023-11-22T13:45:58;98880.72;;;11.64;53.59
42519;BME280;28147;47.520;18.920;2023-11-22T13:48:23;98871.47;;;11.78;53.05
42519;BME280;28147;47.520;18.920;2023-11-22T13:50:49;98869.59;;;11.67;53.29
42519;BME280;28147;47.520;18.920;2023-11-22T13:53:15;98892.31;;;11.69;53.59
42519;BME280;28147;47.520;18.920;2023-11-22T13:55:42;98889.03;;;11.86;52.73
42519;BME280;28147;47.520;18.920;2023-11-22T13:58:08;98903.31;;;11.31;53.81
42519;BME280;28147;47.520;18.920;2023-11-22T14:00:34;98899.88;;;11.42;53.93